RIW Airport (Riverton Rgnl) Information

FAA: RIW - ICAO: KRIW

RIW Airport Location

State Wyoming
County Fremont
City Riverton
RIW Airport is 3 miles northwest of Riverton, WY.
Latitude 43-03-51.3000N
Longitude 108-27-35.4000W
Elevation 5,515ft

KRIW Airport METARs

METAR KRIW 281253Z AUTO 01005KT 10SM CLR M01/M04 A3024 RMK AO2 SLP246 T10111044
Altimeter 30.24"
Temperature -1.1°C (30.0°F)
Wind 10° at 5KT
Clouds Skies are clear.
Visibility 10.0mi
Time observed: 2021-10-28T12:53:00Z

RIW Airport Details

Status Operational
Activation November 1937
Ownership Public
Usage Public
Chart CHEYENNE
ATC on-site No
Beacon schedule sunset-sunrise
Beacon color clear green

RIW Airport Contacts

Owner CITY OF RIVERTON
Owner address 816 N FEDERAL BLVD., RIVERTON, WY 82501
Owner phone (307) 857-7780
Manager JESSICA KING
Manager address PO BOX 1885, JACKSON, WY 83001
Manager phone (307) 732-8337

RIW Airport (Riverton Rgnl) Radio Frequencies

RIW (Airport) Radio Frequencies

UNICOM 122.8
Common traffic advisory frequency (CTAF) 122.8